Time;durP1;ratioP1;P1;durP2;ratioP2;P2;SDS_P1;SDS_P2;PMS_P1;PMS_P2;Temp;Humidity;BMP_temperature;BMP_pressure;BME280_temperature;BME280_humidity;BME280_pressure;Samples;Min_cycle;Max_cycle;Signal;HPM_P1;HPM_P2
2022/01/13 00:02:28;;;;;;;45.10;19.38;;;5.70;99.90;;;;;;5078529;28;20086;-74
2022/01/13 00:04:54;;;;;;;;;;;5.70;99.90;;;;;;5093526;28;20052;-75
2022/01/13 00:07:21;;;;;;;47.58;19.45;;;5.70;99.90;;;;;;5091807;28;19920;-74
2022/01/13 00:09:48;;;;;;;49.50;17.80;;;5.80;99.90;;;;;;5091806;28;20454;-74
2022/01/13 00:12:19;;;;;;;46.17;18.77;;;5.70;99.90;;;;;;5091937;28;20036;-74
2022/01/13 00:15:06;;;;;;;52.33;19.25;;;5.60;99.90;;;;;;5091049;28;20094;-75
2022/01/13 00:17:46;;;;;;;49.33;19.60;;;5.70;99.90;;;;;;5094043;28;20078;-73
2022/01/13 00:20:31;;;;;;;37.90;16.65;;;5.60;99.90;;;;;;5093946;28;20040;-74
2022/01/13 00:25:42;;;;;;;57.95;20.15;;;5.70;99.90;;;;;;5078109;28;20114;-74
2022/01/13 00:28:16;;;;;;;50.65;17.75;;;5.80;99.90;;;;;;5072635;28;20049;-73
2022/01/13 00:30:44;;;;;;;63.75;17.20;;;5.50;99.90;;;;;;5073116;28;20135;-73
2022/01/13 00:33:13;;;;;;;40.30;17.15;;;5.50;99.90;;;;;;5073182;28;20520;-74
2022/01/13 00:35:40;;;;;;;41.00;17.10;;;5.40;99.90;;;;;;5072516;28;20052;-74
2022/01/13 00:38:07;;;;;;;38.67;15.63;;;5.40;99.90;;;;;;5072633;28;20044;-73
2022/01/13 00:40:33;;;;;;;65.35;15.82;;;5.40;99.90;;;;;;5073179;28;20052;-74
2022/01/13 00:43:00;;;;;;;52.95;16.90;;;5.40;99.90;;;;;;5072090;28;20108;-74
2022/01/13 00:45:28;;;;;;;45.70;14.23;;;5.40;99.90;;;;;;5072782;28;20052;-74
2022/01/13 00:47:55;;;;;;;54.70;18.20;;;5.40;99.90;;;;;;5071637;28;20049;-74
2022/01/13 00:50:22;;;;;;;64.13;19.40;;;5.40;99.90;;;;;;5071899;28;20447;-74
2022/01/13 00:52:49;;;;;;;43.53;16.23;;;5.30;99.90;;;;;;5072652;28;20487;-73
2022/01/13 00:55:21;;;;;;;51.65;16.95;;;5.30;99.90;;;;;;5072806;28;20094;-74
2022/01/13 00:57:48;;;;;;;56.17;17.88;;;5.30;99.90;;;;;;5072091;28;20392;-74
2022/01/13 01:00:16;;;;;;;53.50;17.50;;;5.30;99.90;;;;;;5072191;28;20088;-74
2022/01/13 01:02:44;;;;;;;66.43;19.75;;;5.30;99.90;;;;;;5071761;28;20106;-73
2022/01/13 01:05:11;;;;;;;34.30;14.98;;;5.30;99.90;;;;;;5072143;28;20079;-74
2022/01/13 01:07:39;;;;;;;30.83;14.40;;;5.30;99.90;;;;;;5072365;28;20144;-74
2022/01/13 01:10:07;;;;;;;43.83;16.38;;;5.20;99.90;;;;;;5071259;28;20049;-75
2022/01/13 01:12:37;;;;;;;39.85;15.90;;;5.20;99.90;;;;;;5072550;28;20455;-74
2022/01/13 01:15:05;;;;;;;42.33;15.68;;;5.20;99.90;;;;;;5072277;28;20131;-75
2022/01/13 01:17:34;;;;;;;36.72;14.38;;;5.20;99.90;;;;;;5052766;28;20041;-74
2022/01/13 01:20:07;;;;;;;30.90;14.65;;;5.20;99.90;;;;;;5053195;28;20133;-75
2022/01/13 01:22:43;;;;;;;42.60;14.35;;;5.40;99.90;;;;;;5052289;28;20072;-74
2022/01/13 01:25:37;;;;;;;41.58;15.40;;;5.10;99.90;;;;;;5051538;28;20056;-73
2022/01/13 01:28:12;;;;;;;46.42;16.50;;;5.10;99.90;;;;;;5051928;28;20049;-75
2022/01/13 01:30:41;;;;;;;51.92;17.45;;;5.00;99.90;;;;;;5065022;28;20059;-75
2022/01/13 01:33:13;;;;;;;32.30;15.87;;;5.10;99.90;;;;;;5071823;28;20098;-76
2022/01/13 01:35:42;;;;;;;41.00;19.13;;;5.00;99.90;;;;;;5071758;28;20297;-75
2022/01/13 01:38:09;;;;;;;45.53;18.35;;;5.00;99.90;;;;;;5071444;28;20052;-75
2022/01/13 01:40:36;;;;;;;50.25;18.30;;;5.00;99.90;;;;;;5071534;28;20052;-75
2022/01/13 01:43:03;;;;;;;41.97;16.42;;;5.00;99.90;;;;;;5072043;28;20048;-76
2022/01/13 01:45:33;;;;;;;52.63;18.02;;;5.00;99.90;;;;;;5071098;28;20048;-75
2022/01/13 01:48:04;;;;;;;43.75;17.13;;;5.00;99.90;;;;;;5071897;28;20535;-75
2022/01/13 01:50:35;;;;;;;41.13;16.52;;;5.00;99.90;;;;;;5071952;28;20531;-75
2022/01/13 01:53:05;;;;;;;38.95;16.00;;;5.00;99.90;;;;;;5071525;28;20114;-74
2022/01/13 01:55:32;;;;;;;38.42;16.90;;;5.10;99.90;;;;;;5072780;28;20052;-75
2022/01/13 01:57:59;;;;;;;41.22;16.73;;;5.00;99.90;;;;;;5073136;28;20107;-75
2022/01/13 02:00:27;;;;;;;45.92;18.33;;;5.10;99.90;;;;;;5075024;28;20496;-75
2022/01/13 02:02:55;;;;;;;52.55;20.25;;;5.10;99.90;;;;;;5075855;28;20079;-74
2022/01/13 02:05:22;;;;;;;38.95;16.90;;;5.10;99.90;;;;;;5076643;28;20129;-74
2022/01/13 02:07:49;;;;;;;46.42;16.05;;;5.10;99.90;;;;;;5075144;28;20058;-74
2022/01/13 02:10:18;;;;;;;46.25;18.90;;;5.10;99.90;;;;;;5075743;28;20526;-74
2022/01/13 02:12:50;;;;;;;41.13;17.17;;;5.10;99.90;;;;;;5075887;28;20052;-74
2022/01/13 02:17:59;;;;;;;41.38;18.05;;;5.10;99.90;;;;;;5072825;28;20078;-74
2022/01/13 02:20:43;;;;;;;40.72;16.60;;;5.10;99.90;;;;;;5075051;28;20056;-74
2022/01/13 02:23:10;;;;;;;54.28;20.55;;;5.10;99.90;;;;;;5075693;28;20056;-74
2022/01/13 02:25:37;;;;;;;39.33;16.23;;;5.10;99.90;;;;;;5075212;28;20048;-74
2022/01/13 02:28:04;;;;;;;43.80;17.27;;;5.10;99.90;;;;;;5074895;28;20110;-74
2022/01/13 02:30:31;;;;;;;39.38;16.50;;;5.10;99.90;;;;;;5076029;28;20400;-74
2022/01/13 02:32:57;;;;;;;42.60;15.75;;;5.10;99.90;;;;;;5075544;28;20553;-74
2022/01/13 02:35:33;;;;;;;49.45;19.17;;;5.20;99.90;;;;;;5074777;28;20553;-74
2022/01/13 02:38:01;;;;;;;39.47;16.73;;;5.10;99.90;;;;;;5075248;28;20048;-75
2022/01/13 02:40:28;;;;;;;43.05;18.08;;;5.20;99.90;;;;;;5074701;28;20145;-74
2022/01/13 02:42:55;;;;;;;37.38;16.65;;;5.20;99.90;;;;;;5074915;28;20610;-74
2022/01/13 02:45:26;;;;;;;28.52;14.98;;;5.20;99.90;;;;;;5075004;28;20102;-74
2022/01/13 02:50:40;;;;;;;40.10;16.70;;;5.20;99.90;;;;;;5066469;28;20113;-73
2022/01/13 02:53:09;;;;;;;38.00;17.23;;;5.40;99.90;;;;;;5075130;28;20515;-74
2022/01/13 02:55:36;;;;;;;40.78;16.58;;;5.20;99.90;;;;;;5074326;28;20053;-74
2022/01/13 02:58:03;;;;;;;44.90;15.68;;;5.30;99.90;;;;;;5074790;28;20048;-73
2022/01/13 03:00:30;;;;;;;34.58;16.23;;;5.30;99.90;;;;;;5074372;28;20515;-73
2022/01/13 03:02:57;;;;;;;39.83;14.70;;;5.30;99.90;;;;;;5074011;28;20109;-74
2022/01/13 03:05:24;;;;;;;42.00;15.48;;;5.30;99.90;;;;;;5075433;28;20463;-73
2022/01/13 03:07:52;;;;;;;37.25;16.73;;;5.30;99.90;;;;;;5074407;28;20565;-74
2022/01/13 03:10:21;;;;;;;37.75;15.48;;;5.30;99.90;;;;;;5073323;28;20052;-75
2022/01/13 03:12:48;;;;;;;35.47;15.35;;;5.30;99.90;;;;;;5074554;28;20110;-73
2022/01/13 03:15:15;;;;;;;42.67;15.05;;;5.40;99.90;;;;;;5074299;28;20059;-74
2022/01/13 03:17:41;;;;;;;37.45;15.43;;;5.50;99.90;;;;;;5073960;28;20448;-74
2022/01/13 03:20:09;;;;;;;40.28;16.60;;;5.40;99.90;;;;;;5074388;28;20045;-74
2022/01/13 03:22:36;;;;;;;43.75;15.63;;;5.40;99.90;;;;;;5074905;28;20056;-74
2022/01/13 03:25:04;;;;;;;44.55;16.30;;;5.40;99.90;;;;;;5073916;28;20087;-74
2022/01/13 03:27:35;;;;;;;44.70;16.42;;;5.40;99.90;;;;;;5074676;28;20088;-73
2022/01/13 03:30:05;;;;;;;49.00;18.63;;;5.30;99.90;;;;;;5074183;28;20091;-74
2022/01/13 03:32:32;;;;;;;40.35;16.02;;;5.40;99.90;;;;;;5073910;28;20153;-73
2022/01/13 03:34:59;;;;;;;34.58;16.10;;;5.30;99.90;;;;;;5074062;28;20052;-73
2022/01/13 03:37:26;;;;;;;47.60;18.02;;;5.30;99.90;;;;;;5073655;28;20049;-73
2022/01/13 03:39:53;;;;;;;50.33;17.33;;;5.30;99.90;;;;;;5074004;28;20084;-74
2022/01/13 03:42:20;;;;;;;46.13;17.95;;;5.30;99.90;;;;;;5074138;28;20131;-73
2022/01/13 03:44:48;;;;;;;51.05;18.40;;;5.30;99.90;;;;;;5073639;28;20113;-73
2022/01/13 03:47:15;;;;;;;48.78;15.80;;;5.30;99.90;;;;;;5074177;28;20452;-73
2022/01/13 03:49:43;;;;;;;64.25;18.58;;;5.20;99.90;;;;;;5074144;28;20480;-73
2022/01/13 03:53:34;;;;;;;40.05;16.13;;;5.20;99.90;;;;;;5073209;28;20107;-73
2022/01/13 03:56:39;;;;;;;36.55;15.02;;;5.20;99.90;;;;;;5073864;28;20083;-74
2022/01/13 03:59:41;;;;;;;45.17;15.75;;;5.20;99.90;;;;;;5073002;28;20135;-72
2022/01/13 04:02:11;;;;;;;41.53;17.58;;;5.10;99.90;;;;;;5073918;28;20055;-73
2022/01/13 04:04:40;;;;;;;52.50;17.17;;;5.10;99.90;;;;;;5073623;28;20052;-74
2022/01/13 04:07:17;;;;;;;48.22;17.00;;;5.10;99.90;;;;;;5073144;28;20106;-74
2022/01/13 04:10:25;;;;;;;63.67;19.50;;;5.10;99.90;;;;;;5073637;28;20083;-74
2022/01/13 04:12:52;;;;;;;101.97;24.45;;;5.00;99.90;;;;;;5073641;28;20056;-73
2022/01/13 04:15:20;;;;;;;54.88;20.27;;;5.00;99.90;;;;;;5073586;28;20090;-74
2022/01/13 04:17:49;;;;;;;69.55;20.15;;;5.00;99.90;;;;;;5073689;28;20067;-74
2022/01/13 04:20:16;;;;;;;58.90;18.40;;;5.00;99.90;;;;;;5072691;28;20049;-73
2022/01/13 04:22:43;;;;;;;59.42;18.95;;;5.00;99.90;;;;;;5072562;28;20129;-73
2022/01/13 04:25:10;;;;;;;98.85;22.52;;;5.00;99.90;;;;;;5073106;28;20052;-73
2022/01/13 04:27:42;;;;;;;55.55;17.02;;;5.10;99.90;;;;;;5072872;28;20052;-73
2022/01/13 04:32:55;;;;;;;73.65;19.38;;;5.00;99.90;;;;;;5063176;28;20514;-74
2022/01/13 04:35:22;;;;;;;73.90;19.95;;;5.10;99.90;;;;;;5072748;28;20048;-73
2022/01/13 04:37:49;;;;;;;68.68;18.90;;;5.10;99.90;;;;;;5073348;28;20057;-73
2022/01/13 04:40:16;;;;;;;65.93;21.15;;;5.10;99.90;;;;;;5073086;28;20044;-73
2022/01/13 04:42:45;;;;;;;82.38;22.70;;;5.10;99.90;;;;;;5078986;28;20159;-73
2022/01/13 04:45:11;;;;;;;89.53;23.33;;;5.10;99.90;;;;;;5091916;28;20139;-74
2022/01/13 04:47:38;;;;;;;81.70;19.88;;;5.10;99.90;;;;;;5089846;28;20074;-73
2022/01/13 04:50:08;;;;;;;58.38;19.85;;;5.10;99.90;;;;;;5084558;28;20056;-73
2022/01/13 04:52:35;;;;;;;88.75;22.58;;;5.10;99.90;;;;;;5083688;28;20090;-73
2022/01/13 04:55:09;;;;;;;77.63;21.88;;;5.10;99.90;;;;;;5080542;28;20048;-73
2022/01/13 04:57:36;;;;;;;58.33;18.95;;;5.10;99.90;;;;;;5086879;28;20053;-73
2022/01/13 05:00:04;;;;;;;92.10;24.15;;;5.10;99.90;;;;;;5078564;28;20094;-73
2022/01/13 05:02:30;;;;;;;66.90;20.00;;;5.10;99.90;;;;;;5081460;28;20110;-73
2022/01/13 05:04:57;;;;;;;92.65;22.15;;;5.20;99.90;;;;;;5081571;28;20093;-74
2022/01/13 05:07:25;;;;;;;48.85;18.02;;;5.20;99.90;;;;;;5080233;28;20049;-73
2022/01/13 05:09:52;;;;;;;82.03;22.85;;;5.20;99.90;;;;;;5082334;28;20098;-73
2022/01/13 05:12:25;;;;;;;64.43;18.48;;;5.10;99.90;;;;;;5085596;28;20090;-74
2022/01/13 05:14:55;;;;;;;72.95;21.65;;;5.10;99.90;;;;;;5088540;28;20060;-75
2022/01/13 05:17:47;;;;;;;73.82;19.73;;;5.20;99.90;;;;;;5086794;28;20075;-74
2022/01/13 05:20:17;;;;;;;94.00;22.85;;;5.20;99.90;;;;;;5074752;28;20044;-74
2022/01/13 05:22:45;;;;;;;94.50;23.95;;;5.10;99.90;;;;;;5071820;28;20419;-74
2022/01/13 05:25:12;;;;;;;77.20;19.35;;;5.20;99.90;;;;;;5071530;28;20056;-73
2022/01/13 05:27:39;;;;;;;89.32;22.77;;;5.20;99.90;;;;;;5073144;28;20052;-75
2022/01/13 05:30:09;;;;;;;70.65;18.25;;;5.20;99.90;;;;;;5071647;28;20475;-74
2022/01/13 05:32:36;;;;;;;81.78;24.10;;;5.10;99.90;;;;;;5071993;28;20110;-77
2022/01/13 05:35:04;;;;;;;87.07;20.52;;;5.10;99.90;;;;;;5069565;28;20052;-71
2022/01/13 05:37:31;;;;;;;96.93;24.80;;;5.20;99.90;;;;;;5065183;28;20048;-73
2022/01/13 05:40:00;;;;;;;90.07;24.88;;;5.20;99.90;;;;;;5070589;28;20533;-73
2022/01/13 05:42:26;;;;;;;67.80;19.55;;;5.10;99.90;;;;;;5070942;28;20044;-73
2022/01/13 05:44:55;;;;;;;103.80;25.90;;;5.10;99.90;;;;;;5069588;28;20549;-73
2022/01/13 05:47:22;;;;;;;104.85;21.55;;;5.20;99.90;;;;;;5078014;28;20510;-73
2022/01/13 05:49:49;;;;;;;96.40;22.60;;;5.20;99.90;;;;;;5070661;28;20058;-74
2022/01/13 05:52:16;;;;;;;151.70;31.13;;;5.20;99.90;;;;;;5070142;28;20098;-73
2022/01/13 05:54:43;;;;;;;76.90;20.85;;;5.30;99.90;;;;;;5070538;28;20137;-73
2022/01/13 05:57:11;;;;;;;85.68;23.50;;;5.20;99.90;;;;;;5070531;28;20040;-73
2022/01/13 05:59:38;;;;;;;75.40;20.92;;;5.20;99.90;;;;;;5067686;28;20053;-74
2022/01/13 06:02:05;;;;;;;104.63;26.65;;;5.30;99.90;;;;;;5070611;28;20545;-74
2022/01/13 06:04:32;;;;;;;88.55;22.70;;;5.30;99.90;;;;;;5070872;28;20048;-74
2022/01/13 06:06:59;;;;;;;82.35;22.70;;;5.30;99.90;;;;;;5070210;28;20515;-74
2022/01/13 06:09:26;;;;;;;67.07;20.08;;;5.40;99.90;;;;;;5070874;28;20123;-74
2022/01/13 06:11:57;;;;;;;99.63;28.27;;;5.40;99.90;;;;;;5070371;28;20044;-74
2022/01/13 06:14:25;;;;;;;68.60;23.00;;;5.40;99.90;;;;;;5070040;28;20052;-74
2022/01/13 06:16:52;;;;;;;78.20;23.75;;;5.40;99.90;;;;;;5070467;28;20052;-75
2022/01/13 06:19:19;;;;;;;73.47;22.73;;;5.50;99.90;;;;;;5071331;28;20045;-74
2022/01/13 06:21:47;;;;;;;81.20;27.63;;;5.50;99.90;;;;;;5068405;28;20481;-75
2022/01/13 06:24:14;;;;;;;71.38;21.98;;;5.50;99.90;;;;;;5070171;28;20075;-75
2022/01/13 06:26:41;;;;;;;84.72;26.02;;;5.50;99.90;;;;;;5069730;28;20044;-74
2022/01/13 06:29:08;;;;;;;96.30;29.88;;;5.50;99.90;;;;;;5070601;28;20084;-75
2022/01/13 06:31:36;;;;;;;98.00;27.45;;;5.60;99.90;;;;;;5069954;28;20085;-74
2022/01/13 06:34:03;;;;;;;89.13;26.48;;;5.60;99.90;;;;;;5069941;28;20076;-73
2022/01/13 06:36:31;;;;;;;101.50;29.80;;;5.60;99.90;;;;;;5070198;28;20109;-74
2022/01/13 06:38:58;;;;;;;78.45;26.70;;;5.70;99.90;;;;;;5067862;28;20131;-75
2022/01/13 06:41:25;;;;;;;94.68;28.63;;;5.60;99.90;;;;;;5069646;28;20076;-74
2022/01/13 06:43:52;;;;;;;87.57;28.95;;;5.70;99.90;;;;;;5070002;28;20384;-75
2022/01/13 06:46:20;;;;;;;72.60;24.35;;;5.70;99.90;;;;;;5073478;28;20442;-74
2022/01/13 06:48:48;;;;;;;72.20;27.27;;;5.70;99.90;;;;;;5073749;28;20454;-73
2022/01/13 06:51:15;;;;;;;71.47;25.05;;;5.70;99.90;;;;;;5074151;28;20044;-75
2022/01/13 06:53:42;;;;;;;68.28;25.65;;;5.80;99.90;;;;;;5073783;28;20057;-74
2022/01/13 06:56:10;;;;;;;76.55;25.83;;;5.70;99.90;;;;;;5073393;28;20091;-75
2022/01/13 06:58:37;;;;;;;92.63;28.55;;;5.70;99.90;;;;;;5071206;28;20102;-74
2022/01/13 07:01:04;;;;;;;70.68;26.30;;;5.80;99.90;;;;;;5066008;28;20167;-73
2022/01/13 07:03:31;;;;;;;56.28;21.95;;;5.80;99.90;;;;;;5065569;28;20153;-73
2022/01/13 07:05:59;;;;;;;69.32;25.02;;;5.90;99.90;;;;;;5070067;28;20041;-73
2022/01/13 07:08:26;;;;;;;68.10;24.95;;;5.90;99.90;;;;;;5072376;28;20453;-72
2022/01/13 07:10:53;;;;;;;55.75;22.50;;;5.90;99.90;;;;;;5069724;28;20040;-73
2022/01/13 07:13:20;;;;;;;89.05;25.90;;;5.90;99.90;;;;;;5071951;28;20048;-73
2022/01/13 07:15:47;;;;;;;74.30;26.85;;;5.90;99.90;;;;;;5071356;28;20099;-73
2022/01/13 07:18:14;;;;;;;85.85;28.35;;;5.90;99.90;;;;;;5071712;28;20106;-73
2022/01/13 07:20:43;;;;;;;71.43;26.05;;;6.00;99.90;;;;;;5070735;28;20037;-74
2022/01/13 07:23:11;;;;;;;85.93;29.88;;;6.00;99.90;;;;;;5070892;28;20532;-73
2022/01/13 07:25:38;;;;;;;60.88;25.48;;;6.00;99.90;;;;;;5069292;28;20427;-73
2022/01/13 07:28:06;;;;;;;63.13;25.65;;;6.00;99.90;;;;;;5071697;28;20044;-73
2022/01/13 07:30:33;;;;;;;70.18;26.05;;;6.00;99.90;;;;;;5068907;28;20048;-74
2022/01/13 07:33:00;;;;;;;85.00;29.85;;;6.00;99.90;;;;;;5070288;28;20098;-74
2022/01/13 07:35:27;;;;;;;97.47;29.80;;;6.00;99.90;;;;;;5070750;28;20522;-74
2022/01/13 07:37:54;;;;;;;71.35;24.02;;;6.00;99.90;;;;;;5072040;28;20076;-74
2022/01/13 07:40:22;;;;;;;77.97;26.30;;;6.00;99.90;;;;;;5069633;28;20145;-73
2022/01/13 07:42:49;;;;;;;93.22;29.73;;;6.00;99.90;;;;;;5072940;28;20084;-74
2022/01/13 07:45:18;;;;;;;80.07;26.33;;;6.00;99.90;;;;;;5066562;28;20377;-74
2022/01/13 07:47:46;;;;;;;63.58;22.15;;;6.00;99.90;;;;;;5073306;28;20062;-73
2022/01/13 07:50:15;;;;;;;82.70;27.42;;;6.00;99.90;;;;;;5064205;28;20183;-75
2022/01/13 07:52:42;;;;;;;79.63;29.10;;;6.00;99.90;;;;;;5069203;28;20097;-73
2022/01/13 07:55:10;;;;;;;67.05;26.45;;;6.00;99.90;;;;;;5066810;28;20056;-73
2022/01/13 07:57:39;;;;;;;80.40;29.02;;;6.00;99.90;;;;;;5072447;28;20094;-73
2022/01/13 08:00:08;;;;;;;70.05;26.05;;;6.00;99.90;;;;;;5069085;28;20065;-73
2022/01/13 08:02:35;;;;;;;61.22;23.35;;;6.00;99.90;;;;;;5064052;28;20052;-73
2022/01/13 08:05:02;;;;;;;78.15;26.77;;;6.00;99.90;;;;;;5071148;28;20086;-74
2022/01/13 08:07:29;;;;;;;63.13;25.42;;;6.10;99.90;;;;;;5065951;28;20497;-73
2022/01/13 08:09:56;;;;;;;67.22;26.52;;;6.10;99.90;;;;;;5056592;28;20065;-74
2022/01/13 08:12:23;;;;;;;69.20;26.63;;;6.10;99.90;;;;;;5057113;28;20045;-74
2022/01/13 08:14:51;;;;;;;67.65;24.45;;;6.10;99.90;;;;;;5061324;28;20476;-74
2022/01/13 08:19:45;;;;;;;78.97;26.83;;;6.10;99.90;;;;;;5066062;28;20500;-74
2022/01/13 08:20:07;;;;;;;63.55;24.45;;;6.10;99.90;;;;;;5059348;28;20417;-73
2022/01/13 08:22:35;;;;;;;72.65;24.98;;;6.10;99.90;;;;;;5051972;28;20404;-74
2022/01/13 08:25:02;;;;;;;51.03;23.52;;;6.20;99.90;;;;;;5052116;28;20052;-74
2022/01/13 08:27:29;;;;;;;57.55;24.38;;;6.20;99.90;;;;;;5071093;28;20044;-73
2022/01/13 08:29:57;;;;;;;54.45;23.50;;;6.20;99.90;;;;;;5071858;28;20091;-73
2022/01/13 08:32:24;;;;;;;65.18;25.30;;;6.20;99.90;;;;;;5068487;28;20546;-74
2022/01/13 08:34:51;;;;;;;60.55;25.23;;;6.20;99.90;;;;;;5070437;28;20040;-72
2022/01/13 08:37:18;;;;;;;70.97;26.33;;;6.20;99.90;;;;;;5077632;28;20121;-73
2022/01/13 08:39:45;;;;;;;53.63;22.35;;;6.20;99.90;;;;;;5070711;28;20055;-73
2022/01/13 08:42:13;;;;;;;50.97;23.08;;;6.20;99.90;;;;;;5064021;28;20388;-73
2022/01/13 08:44:40;;;;;;;67.15;24.92;;;6.20;99.90;;;;;;5051032;28;20053;-74
2022/01/13 08:47:09;;;;;;;66.45;24.20;;;6.20;99.90;;;;;;5054228;28;20079;-73
2022/01/13 08:49:37;;;;;;;71.15;26.98;;;6.20;99.90;;;;;;5064697;28;20052;-74
2022/01/13 08:52:05;;;;;;;62.83;24.17;;;6.20;99.90;;;;;;5067578;28;20041;-74
2022/01/13 08:54:31;;;;;;;73.25;27.70;;;6.20;99.90;;;;;;5055808;28;20053;-73
2022/01/13 08:56:59;;;;;;;54.83;24.30;;;6.20;99.90;;;;;;5052558;28;20182;-75
2022/01/13 08:59:26;;;;;;;67.53;25.73;;;6.20;99.90;;;;;;5062058;28;20072;-75
2022/01/13 09:01:54;;;;;;;44.03;21.02;;;6.20;99.90;;;;;;5066240;28;20048;-74
2022/01/13 09:04:22;;;;;;;52.75;22.77;;;6.20;99.90;;;;;;5065306;28;20056;-74
2022/01/13 09:06:49;;;;;;;62.15;23.92;;;6.20;99.90;;;;;;5071153;28;20052;-75
2022/01/13 09:09:16;;;;;;;46.42;20.77;;;6.20;99.90;;;;;;5062132;28;20132;-76
2022/01/13 09:11:43;;;;;;;51.90;21.38;;;6.30;99.90;;;;;;5053474;28;20087;-74
2022/01/13 09:14:10;;;;;;;70.50;25.13;;;6.30;99.90;;;;;;5063949;28;20056;-75
2022/01/13 09:16:43;;;;;;;67.57;24.85;;;6.30;99.90;;;;;;5050621;28;20076;-75
2022/01/13 09:19:11;;;;;;;55.33;24.58;;;6.20;99.90;;;;;;5064868;28;20056;-74
2022/01/13 09:21:40;;;;;;;51.80;21.95;;;6.20;99.90;;;;;;5067166;28;20427;-75
2022/01/13 09:24:09;;;;;;;48.97;19.98;;;6.20;99.90;;;;;;5058866;28;20135;-74
2022/01/13 09:26:37;;;;;;;55.67;22.02;;;6.20;99.90;;;;;;5064094;28;20044;-74
2022/01/13 09:29:05;;;;;;;50.70;22.58;;;6.20;99.90;;;;;;5070202;28;20133;-74
2022/01/13 09:31:32;;;;;;;51.38;20.65;;;6.20;99.90;;;;;;5070258;28;20049;-74
2022/01/13 09:34:01;;;;;;;47.25;20.70;;;6.20;99.90;;;;;;5061761;28;20083;-74
2022/01/13 09:36:28;;;;;;;61.85;23.75;;;6.20;99.90;;;;;;5066618;28;20571;-75
2022/01/13 09:38:56;;;;;;;57.60;22.48;;;6.20;99.90;;;;;;5065028;28;21194;-76
2022/01/13 09:41:25;;;;;;;53.20;21.70;;;6.20;99.90;;;;;;5070460;28;20090;-75
2022/01/13 09:43:52;;;;;;;49.45;22.63;;;6.20;99.90;;;;;;5070385;28;20472;-75
2022/01/13 09:46:19;;;;;;;48.20;20.65;;;6.20;99.90;;;;;;5053239;28;20535;-74
2022/01/13 09:48:46;;;;;;;54.30;23.40;;;6.20;99.90;;;;;;5050481;28;20139;-74
2022/01/13 09:51:13;;;;;;;50.83;23.05;;;6.20;99.90;;;;;;5066868;28;20052;-74
2022/01/13 09:53:40;;;;;;;49.20;23.17;;;6.30;99.90;;;;;;5070342;28;20532;-74
2022/01/13 09:56:10;;;;;;;60.80;23.58;;;6.30;99.90;;;;;;5070109;28;20071;-75
2022/01/13 09:58:37;;;;;;;59.38;23.35;;;6.30;99.90;;;;;;5066828;28;20044;-75
2022/01/13 10:01:05;;;;;;;46.00;21.85;;;6.30;99.90;;;;;;5049529;28;20115;-75
2022/01/13 10:03:33;;;;;;;48.20;22.17;;;6.30;99.90;;;;;;5050429;28;20063;-74
2022/01/13 10:06:02;;;;;;;49.92;21.33;;;6.30;99.90;;;;;;5049438;28;20053;-74
2022/01/13 10:08:42;;;;;;;40.78;19.52;;;6.40;99.90;;;;;;5055343;28;20083;-75
2022/01/13 10:11:27;;;;;;;52.10;20.75;;;6.40;99.90;;;;;;5060402;28;20075;-75
2022/01/13 10:14:06;;;;;;;48.35;22.10;;;6.40;99.90;;;;;;5069319;28;20569;-75
2022/01/13 10:16:33;;;;;;;57.47;25.17;;;6.50;99.90;;;;;;5069427;28;20544;-74
2022/01/13 10:19:00;;;;;;;44.97;21.20;;;6.50;99.90;;;;;;5053194;28;20436;-74
2022/01/13 10:21:27;;;;;;;40.67;20.17;;;6.50;99.90;;;;;;5060929;28;20095;-74
2022/01/13 10:24:13;;;;;;;45.13;20.55;;;6.50;99.90;;;;;;5054345;28;20056;-73
2022/01/13 10:26:56;;;;;;;41.33;21.65;;;6.50;99.90;;;;;;5065136;28;20115;-74
2022/01/13 10:29:36;;;;;;;46.92;21.15;;;6.50;99.90;;;;;;5067634;28;20122;-74
2022/01/13 10:32:04;;;;;;;;;;;6.60;99.90;;;;;;5057217;28;20504;-75
2022/01/13 10:34:32;;;;;;;49.85;22.38;;;6.60;99.90;;;;;;5073602;28;19920;-75
2022/01/13 10:37:05;;;;;;;43.10;19.88;;;6.60;99.90;;;;;;5067889;28;20455;-75
2022/01/13 10:39:51;;;;;;;44.47;20.42;;;6.60;99.90;;;;;;5071698;28;20095;-74
2022/01/13 10:45:26;;;;;;;50.28;21.63;;;6.60;99.90;;;;;;5071909;28;20041;-74
2022/01/13 10:47:55;;;;;;;48.50;22.60;;;6.60;99.90;;;;;;5067053;28;20055;-75
2022/01/13 10:50:26;;;;;;;54.10;23.80;;;6.60;99.90;;;;;;5072591;28;20094;-75
2022/01/13 10:52:53;;;;;;;51.40;23.92;;;6.60;99.90;;;;;;5073641;28;20121;-75
2022/01/13 10:55:22;;;;;;;41.60;21.58;;;7.20;99.90;;;;;;5072641;28;20121;-74
2022/01/13 10:57:52;;;;;;;45.97;21.45;;;6.60;99.90;;;;;;5066489;28;20060;-74
2022/01/13 11:00:21;;;;;;;45.92;21.63;;;6.60;99.90;;;;;;5061815;28;20107;-74
2022/01/13 11:03:01;;;;;;;46.45;22.98;;;6.60;99.90;;;;;;5072361;28;20114;-74
2022/01/13 11:05:29;;;;;;;43.63;21.33;;;6.60;99.90;;;;;;5073733;28;20118;-74
2022/01/13 11:07:57;;;;;;;51.28;24.98;;;6.60;99.90;;;;;;5056680;28;20088;-74
2022/01/13 11:10:24;;;;;;;52.28;22.85;;;6.60;99.90;;;;;;5067339;28;20444;-75
2022/01/13 11:12:58;;;;;;;44.58;20.95;;;6.70;99.90;;;;;;5070039;28;20048;-74
2022/01/13 11:15:25;;;;;;;42.92;20.63;;;6.70;99.90;;;;;;5070004;28;20060;-73
2022/01/13 11:17:54;;;;;;;48.80;22.38;;;6.70;99.90;;;;;;5072769;28;20056;-74
2022/01/13 11:20:22;;;;;;;48.35;21.42;;;6.80;99.90;;;;;;5072209;28;20082;-74
2022/01/13 11:22:52;;;;;;;42.42;20.85;;;6.80;99.90;;;;;;5072432;28;20066;-75
2022/01/13 11:25:23;;;;;;;41.28;20.05;;;6.80;99.90;;;;;;5060577;28;20092;-74
2022/01/13 11:27:51;;;;;;;58.90;23.00;;;6.90;99.90;;;;;;5060372;28;20049;-74
2022/01/13 11:30:21;;;;;;;44.03;21.73;;;6.90;99.90;;;;;;5063924;28;20041;-73
2022/01/13 11:32:49;;;;;;;47.35;21.88;;;6.90;99.90;;;;;;5072000;28;20159;-76
2022/01/13 11:35:20;;;;;;;47.17;22.67;;;6.90;99.90;;;;;;5069691;28;20063;-75
2022/01/13 11:37:47;;;;;;;43.55;22.02;;;6.90;99.90;;;;;;5067805;28;20080;-75
2022/01/13 11:40:36;;;;;;;39.88;20.08;;;7.00;99.90;;;;;;5071682;28;20149;-74
2022/01/13 11:43:04;;;;;;;48.00;22.13;;;7.00;99.90;;;;;;5068684;28;20933;-75
2022/01/13 11:45:41;;;;;;;39.33;21.70;;;7.00;99.90;;;;;;5064532;28;20131;-74
2022/01/13 11:48:17;;;;;;;42.22;20.33;;;7.00;99.90;;;;;;5067009;28;20051;-75
2022/01/13 11:50:48;;;;;;;49.28;21.65;;;6.90;99.90;;;;;;5064009;28;20109;-74
2022/01/13 11:53:28;;;;;;;38.67;20.48;;;7.00;99.90;;;;;;5071690;28;20082;-74
2022/01/13 11:56:00;;;;;;;39.50;19.65;;;6.90;99.90;;;;;;5058803;28;20103;-75
2022/01/13 11:58:31;;;;;;;45.20;23.00;;;6.90;99.90;;;;;;5069137;28;20106;-74
2022/01/13 12:01:11;;;;;;;40.53;20.42;;;7.00;99.90;;;;;;5071414;28;20083;-73
2022/01/13 12:03:42;;;;;;;39.73;20.67;;;6.90;99.90;;;;;;5085193;28;20119;-74
2022/01/13 12:06:09;;;;;;;36.83;18.63;;;7.00;99.90;;;;;;5071326;28;20290;-74
2022/01/13 12:08:44;;;;;;;36.67;19.73;;;7.00;99.90;;;;;;5057480;28;20084;-73
2022/01/13 12:11:32;;;;;;;42.20;19.80;;;7.10;99.90;;;;;;5064000;28;20056;-75
2022/01/13 12:13:59;;;;;;;39.40;20.00;;;7.00;99.90;;;;;;5057383;28;20076;-75
2022/01/13 12:16:55;;;;;;;36.60;18.92;;;7.00;99.90;;;;;;5066068;28;20092;-73
2022/01/13 12:19:31;;;;;;;36.33;20.02;;;7.10;99.90;;;;;;5069637;28;20066;-74
2022/01/13 12:22:04;;;;;;;40.40;20.02;;;7.10;99.90;;;;;;5066632;28;20127;-74
2022/01/13 12:24:45;;;;;;;43.85;21.17;;;7.10;99.90;;;;;;5054163;28;20114;-75
2022/01/13 12:27:12;;;;;;;;;;;7.10;99.90;;;;;;5065822;28;20114;-74
2022/01/13 12:29:45;;;;;;;37.28;17.58;;;7.10;99.90;;;;;;5066652;28;19921;-75
2022/01/13 12:32:14;;;;;;;37.17;18.00;;;7.10;99.90;;;;;;5072297;28;20056;-75
2022/01/13 12:34:51;;;;;;;38.17;18.83;;;7.10;99.90;;;;;;5070125;28;20060;-73
2022/01/13 12:37:27;;;;;;;37.80;18.13;;;7.10;99.90;;;;;;5080946;28;20555;-75
2022/01/13 12:39:59;;;;;;;31.83;17.17;;;7.20;99.90;;;;;;5064405;28;20521;-75
2022/01/13 12:42:31;;;;;;;41.25;17.50;;;7.20;99.90;;;;;;5069609;28;20051;-74
2022/01/13 12:47:44;;;;;;;32.28;17.20;;;7.40;99.90;;;;;;5069913;28;20097;-73
2022/01/13 12:50:20;;;;;;;35.03;18.95;;;7.40;99.90;;;;;;5071952;28;20051;-74
2022/01/13 12:52:47;;;;;;;32.53;17.48;;;7.40;99.90;;;;;;5070502;28;20480;-74
2022/01/13 12:55:16;;;;;;;35.15;18.80;;;7.50;99.90;;;;;;5070071;28;20087;-73
2022/01/13 12:57:49;;;;;;;34.63;18.85;;;7.50;99.90;;;;;;5060519;28;20053;-73
2022/01/13 13:00:17;;;;;;;36.35;17.73;;;7.60;99.90;;;;;;5073727;28;20060;-74
2022/01/13 13:02:57;;;;;;;34.65;17.60;;;7.70;99.90;;;;;;5070752;28;20071;-73
2022/01/13 13:05:36;;;;;;;30.73;16.90;;;7.80;99.90;;;;;;5060747;28;20107;-74
2022/01/13 13:08:04;;;;;;;29.40;15.77;;;7.40;99.90;;;;;;5058644;28;20076;-76
2022/01/13 13:10:31;;;;;;;30.42;16.40;;;7.90;99.90;;;;;;5064097;28;20504;-74